createdAt,value
2019-05-14T00:00:07.326Z,18.60
2019-05-14T00:02:35.341Z,18.50
2019-05-14T00:05:03.358Z,18.60
2019-05-14T00:07:32.149Z,18.50
2019-05-14T00:10:01.209Z,18.60
2019-05-14T00:12:31.382Z,18.60
2019-05-14T00:14:59.143Z,18.60
2019-05-14T00:17:27.144Z,18.60
2019-05-14T00:20:06.266Z,18.60
2019-05-14T00:22:25.005Z,18.60
2019-05-14T00:24:53.043Z,18.50
2019-05-14T00:27:21.819Z,18.50
2019-05-14T00:29:51.846Z,18.60
2019-05-14T00:32:21.681Z,18.60
2019-05-14T00:34:51.661Z,18.60
2019-05-14T00:37:21.742Z,18.60
2019-05-14T00:39:49.377Z,18.50
2019-05-14T00:42:17.391Z,18.60
2019-05-14T00:44:54.390Z,18.60
2019-05-14T00:47:15.568Z,18.60
2019-05-14T00:49:43.558Z,18.60
2019-05-14T00:52:12.080Z,18.60
2019-05-14T00:54:41.698Z,18.60
2019-05-14T00:57:11.964Z,18.50
2019-05-14T00:59:41.708Z,18.60
2019-05-14T01:02:11.381Z,18.60
2019-05-14T01:04:39.217Z,18.60
2019-05-14T01:07:07.288Z,18.60
2019-05-14T01:09:35.300Z,18.60
2019-05-14T01:12:03.300Z,18.60
2019-05-14T01:14:31.782Z,18.50
2019-05-14T01:17:02.003Z,18.50
2019-05-14T01:19:31.525Z,18.50
2019-05-14T01:22:01.543Z,18.60
2019-05-14T01:24:29.240Z,18.60
2019-05-14T01:26:57.264Z,18.60
2019-05-14T01:29:25.524Z,18.50
2019-05-14T01:31:53.512Z,18.50
2019-05-14T01:34:21.688Z,18.50
2019-05-14T01:36:49.911Z,18.50
2019-05-14T01:39:18.026Z,18.50
2019-05-14T01:41:46.072Z,18.50
2019-05-14T01:44:14.159Z,18.60
2019-05-14T01:46:42.244Z,18.50
2019-05-14T01:49:12.045Z,18.50
2019-05-14T01:51:42.141Z,18.50
2019-05-14T01:54:11.784Z,18.50
2019-05-14T01:56:39.540Z,18.50
2019-05-14T01:59:07.622Z,18.50
2019-05-14T02:01:35.642Z,18.50
2019-05-14T02:04:03.660Z,18.50
2019-05-14T02:06:31.927Z,18.50
2019-05-14T02:09:02.055Z,18.50
2019-05-14T02:11:31.878Z,18.50
2019-05-14T02:13:59.485Z,18.50
2019-05-14T02:16:27.486Z,18.50
2019-05-14T02:18:55.496Z,18.50
2019-05-14T02:21:23.552Z,18.50
2019-05-14T02:23:51.589Z,18.50
2019-05-14T02:26:21.889Z,18.50
2019-05-14T02:28:51.390Z,18.50
2019-05-14T02:31:20.185Z,18.50
2019-05-14T02:33:50.349Z,18.50
2019-05-14T02:36:19.470Z,18.50
2019-05-14T02:38:49.294Z,18.50
2019-05-14T02:41:19.534Z,18.50
2019-05-14T02:43:50.281Z,18.50
2019-05-14T02:46:21.413Z,18.50
2019-05-14T02:48:49.144Z,18.50
2019-05-14T02:51:19.845Z,18.50
2019-05-14T02:53:49.570Z,18.50
2019-05-14T02:56:16.421Z,18.50
2019-05-14T02:58:44.512Z,18.50
2019-05-14T03:01:12.536Z,18.50
2019-05-14T03:03:40.601Z,18.50
2019-05-14T03:06:09.432Z,18.50
2019-05-14T03:08:39.019Z,18.50
2019-05-14T03:11:09.435Z,18.50
2019-05-14T03:13:39.884Z,18.50
2019-05-14T03:16:22.528Z,18.50
2019-05-14T03:18:39.409Z,18.50
2019-05-14T03:21:09.149Z,18.40
2019-05-14T03:23:39.153Z,18.50
2019-05-14T03:26:09.326Z,18.50
2019-05-14T03:28:39.472Z,18.50
2019-05-14T03:31:05.293Z,18.50
2019-05-14T03:33:34.377Z,18.50
2019-05-14T03:36:09.564Z,18.50
2019-05-14T03:38:32.583Z,18.40
2019-05-14T03:41:00.709Z,18.50
2019-05-14T03:43:29.562Z,18.50
2019-05-14T03:45:59.325Z,18.40
2019-05-14T03:48:29.623Z,18.40
2019-05-14T03:51:00.335Z,18.50
2019-05-14T03:53:29.665Z,18.50
2019-05-14T03:55:59.685Z,18.50
2019-05-14T03:58:29.601Z,18.50
2019-05-14T04:00:59.843Z,18.50
2019-05-14T04:03:29.223Z,18.50
2019-05-14T04:05:58.863Z,18.50
2019-05-14T04:08:29.049Z,18.50
2019-05-14T04:10:58.868Z,18.50
2019-05-14T04:13:43.961Z,18.50
2019-05-14T04:16:12.097Z,18.50
2019-05-14T04:18:40.786Z,18.50
2019-05-14T04:21:10.131Z,18.40
2019-05-14T04:23:39.668Z,18.50
2019-05-14T04:26:09.371Z,18.40
2019-05-14T04:28:39.254Z,18.50
2019-05-14T04:31:09.873Z,18.40
2019-05-14T04:33:39.231Z,18.50
2019-05-14T04:36:09.904Z,18.50
2019-05-14T04:38:40.483Z,18.40
2019-05-14T04:41:09.998Z,18.50
2019-05-14T04:43:39.613Z,18.50
2019-05-14T04:46:10.032Z,18.50
2019-05-14T04:48:38.631Z,18.50
2019-05-14T04:51:09.570Z,18.40
2019-05-14T04:53:35.569Z,18.50
2019-05-14T04:56:03.598Z,18.50
2019-05-14T04:58:31.762Z,18.50
2019-05-14T05:01:00.893Z,18.40
2019-05-14T05:03:31.316Z,18.50
2019-05-14T05:05:59.232Z,18.50
2019-05-14T05:08:30.345Z,18.50
2019-05-14T05:11:00.002Z,18.50
2019-05-14T05:13:29.262Z,18.50
2019-05-14T05:15:59.248Z,18.50
2019-05-14T05:18:29.138Z,18.50
2019-05-14T05:20:58.281Z,18.50
2019-05-14T05:23:28.125Z,18.50
2019-05-14T05:25:58.296Z,18.50
2019-05-14T05:28:28.076Z,18.50
2019-05-14T05:30:55.262Z,18.50
2019-05-14T05:33:23.322Z,18.50
2019-05-14T05:35:51.443Z,18.50
2019-05-14T05:38:19.465Z,18.50
2019-05-14T05:40:48.575Z,18.50
2019-05-14T05:43:19.027Z,18.50
2019-05-14T05:45:48.567Z,18.60
2019-05-14T05:48:18.601Z,18.60
2019-05-14T05:50:48.492Z,18.60
2019-05-14T05:53:15.842Z,18.60
2019-05-14T05:55:44.067Z,18.60
2019-05-14T05:58:12.131Z,18.50
2019-05-14T06:00:40.497Z,18.50
2019-05-14T06:03:10.874Z,18.50
2019-05-14T06:05:39.065Z,18.50
2019-05-14T06:08:08.600Z,18.50
2019-05-14T06:10:39.742Z,18.50
2019-05-14T06:13:08.841Z,18.50
2019-05-14T06:15:47.562Z,18.50
2019-05-14T06:18:15.216Z,18.50
2019-05-14T06:20:38.477Z,18.50
2019-05-14T06:23:08.269Z,18.50
2019-05-14T06:25:35.450Z,18.60
2019-05-14T06:28:03.528Z,18.50
2019-05-14T06:30:32.399Z,18.60
2019-05-14T06:33:00.585Z,18.60
2019-05-14T06:35:28.673Z,18.50
2019-05-14T06:37:58.247Z,18.50
2019-05-14T06:40:28.573Z,18.50
2019-05-14T06:42:56.259Z,18.50
2019-05-14T06:45:24.392Z,18.50
2019-05-14T06:47:52.404Z,18.50
2019-05-14T06:50:20.545Z,18.50
2019-05-14T06:52:49.625Z,18.50
2019-05-14T06:55:18.143Z,18.50
2019-05-14T06:57:48.024Z,18.50
2019-05-14T07:00:18.806Z,18.50
2019-05-14T07:02:45.974Z,18.50
2019-05-14T07:05:14.012Z,18.50
2019-05-14T07:07:42.038Z,18.50
2019-05-14T07:10:10.045Z,18.50
2019-05-14T07:12:38.708Z,18.50
2019-05-14T07:15:09.164Z,18.50
2019-05-14T07:17:38.419Z,18.50
2019-05-14T07:20:08.691Z,18.50
2019-05-14T07:22:38.983Z,18.40
2019-05-14T07:25:09.497Z,18.30
2019-05-14T07:27:39.026Z,18.30
2019-05-14T07:30:08.773Z,18.30
2019-05-14T07:32:39.187Z,18.30
2019-05-14T07:35:05.973Z,18.30
2019-05-14T07:37:34.036Z,18.30
2019-05-14T07:40:02.126Z,18.30
2019-05-14T07:42:30.226Z,18.30
2019-05-14T07:44:58.881Z,18.20
2019-05-14T07:47:29.117Z,18.20
2019-05-14T07:49:58.234Z,18.20
2019-05-14T07:52:28.512Z,18.20
2019-05-14T07:54:58.533Z,18.20
2019-05-14T07:57:28.314Z,18.20
2019-05-14T07:59:55.696Z,18.20
2019-05-14T08:02:24.051Z,18.20
2019-05-14T08:04:52.196Z,18.30
2019-05-14T08:07:20.216Z,18.30
2019-05-14T08:09:48.257Z,18.30
2019-05-14T08:12:19.148Z,18.30
2019-05-14T08:15:09.281Z,18.30
2019-05-14T08:17:16.299Z,18.30
2019-05-14T08:19:44.649Z,18.30
2019-05-14T08:22:12.729Z,18.30
2019-05-14T08:24:40.792Z,18.30
2019-05-14T08:27:08.924Z,18.30
2019-05-14T08:29:39.924Z,18.30
2019-05-14T08:32:08.891Z,18.30
2019-05-14T08:34:38.737Z,18.30
2019-05-14T08:37:08.244Z,18.30
2019-05-14T08:39:38.864Z,18.30
2019-05-14T08:42:08.291Z,18.30
2019-05-14T08:44:38.639Z,18.30
2019-05-14T08:47:05.659Z,18.30
2019-05-14T08:49:42.520Z,18.30
2019-05-14T08:52:03.492Z,18.30
2019-05-14T08:54:31.564Z,18.30
2019-05-14T08:56:59.598Z,18.40
2019-05-14T08:59:28.858Z,18.40
2019-05-14T09:02:05.417Z,18.40
2019-05-14T09:04:30.067Z,18.40
2019-05-14T09:06:58.333Z,18.40
2019-05-14T09:09:28.707Z,18.40
2019-05-14T09:11:56.124Z,18.40
2019-05-14T09:14:24.154Z,18.40
2019-05-14T09:16:52.232Z,18.40
2019-05-14T09:19:20.294Z,18.40
2019-05-14T09:21:49.595Z,18.40
2019-05-14T09:24:18.261Z,18.40
2019-05-14T09:26:48.302Z,18.40
2019-05-14T09:29:25.118Z,18.40
2019-05-14T09:31:46.094Z,18.40
2019-05-14T09:34:14.170Z,18.40
2019-05-14T09:36:42.210Z,18.40
2019-05-14T09:39:12.114Z,18.50
2019-05-14T09:41:40.185Z,18.50
2019-05-14T09:44:09.350Z,18.50
2019-05-14T09:46:38.492Z,18.50
2019-05-14T09:49:08.086Z,18.50
2019-05-14T09:51:38.428Z,18.50
2019-05-14T09:54:08.357Z,18.50
2019-05-14T09:56:36.026Z,18.50
2019-05-14T09:59:04.103Z,18.50
2019-05-14T10:01:32.133Z,18.50
2019-05-14T10:04:00.219Z,18.50
2019-05-14T10:06:28.602Z,18.50
2019-05-14T10:08:58.827Z,18.50
2019-05-14T10:11:28.628Z,18.50
2019-05-14T10:13:56.408Z,18.50
2019-05-14T10:16:24.400Z,18.50
2019-05-14T10:18:53.023Z,18.50
2019-05-14T10:21:21.235Z,18.50
2019-05-14T10:23:49.289Z,18.50
2019-05-14T10:26:18.530Z,18.50
2019-05-14T10:28:48.429Z,18.50
2019-05-14T10:31:18.308Z,18.60
2019-05-14T10:33:48.545Z,18.50
2019-05-14T10:36:18.954Z,18.50
2019-05-14T10:38:46.179Z,18.60
2019-05-14T10:41:14.206Z,18.60
2019-05-14T10:43:42.237Z,18.50
2019-05-14T10:46:10.290Z,18.60
2019-05-14T10:48:39.626Z,18.60
2019-05-14T10:51:09.875Z,18.60
2019-05-14T10:53:37.800Z,18.60
2019-05-14T10:56:05.822Z,18.60
2019-05-14T10:58:33.862Z,18.60
2019-05-14T11:01:01.906Z,18.60
2019-05-14T11:03:30.377Z,18.60
2019-05-14T11:05:58.927Z,18.60
2019-05-14T11:08:29.379Z,18.60
2019-05-14T11:11:03.210Z,18.60
2019-05-14T11:13:29.301Z,18.60
2019-05-14T11:15:59.254Z,18.60
2019-05-14T11:18:28.858Z,18.70
2019-05-14T11:21:16.180Z,18.90
2019-05-14T11:23:25.866Z,19.00
2019-05-14T11:25:54.130Z,19.10
2019-05-14T11:28:22.251Z,19.20
2019-05-14T11:30:50.440Z,19.20
2019-05-14T11:33:18.817Z,19.30
2019-05-14T11:35:46.843Z,19.30
2019-05-14T11:38:28.423Z,19.30
2019-05-14T11:40:44.651Z,19.30
2019-05-14T11:43:12.707Z,19.40
2019-05-14T11:45:40.754Z,19.40
2019-05-14T11:48:08.949Z,19.40
2019-05-14T11:50:37.088Z,19.40
2019-05-14T11:53:05.155Z,19.40
2019-05-14T11:55:33.137Z,19.40
2019-05-14T11:58:01.145Z,19.50
2019-05-14T12:00:29.680Z,19.50
2019-05-14T12:02:58.806Z,19.50
2019-05-14T12:05:26.783Z,19.50
2019-05-14T12:07:54.813Z,19.50
2019-05-14T12:10:22.809Z,19.50
2019-05-14T12:12:50.848Z,19.50
2019-05-14T12:15:18.942Z,19.60
2019-05-14T12:17:50.609Z,19.60
2019-05-14T12:20:16.748Z,19.60
2019-05-14T12:22:44.790Z,19.60
2019-05-14T12:25:12.781Z,19.60
2019-05-14T12:27:40.853Z,19.60
2019-05-14T12:30:09.698Z,19.50
2019-05-14T12:32:39.635Z,19.60
2019-05-14T12:35:08.665Z,19.60
2019-05-14T12:37:38.854Z,19.70
2019-05-14T12:40:08.799Z,19.70
2019-05-14T12:42:38.839Z,19.60
2019-05-14T12:45:06.027Z,19.60
2019-05-14T12:47:34.080Z,19.50
2019-05-14T12:50:02.151Z,19.50
2019-05-14T12:52:30.164Z,19.50
2019-05-14T12:54:59.767Z,19.50
2019-05-14T12:57:30.053Z,19.50
2019-05-14T12:59:58.275Z,19.50
2019-05-14T13:02:29.308Z,19.50
2019-05-14T13:04:56.117Z,19.50
2019-05-14T13:07:24.150Z,19.50
2019-05-14T13:09:52.219Z,19.50
2019-05-14T13:12:20.286Z,19.50
2019-05-14T13:14:48.994Z,19.50
2019-05-14T13:17:18.771Z,19.50
2019-05-14T13:19:48.697Z,19.50
2019-05-14T13:22:20.839Z,19.50
2019-05-14T13:25:05.491Z,19.50
2019-05-14T13:27:33.496Z,19.50
2019-05-14T13:30:01.645Z,19.60
2019-05-14T13:32:29.738Z,19.60
2019-05-14T13:34:59.227Z,19.60
2019-05-14T13:37:28.830Z,19.60
2019-05-14T13:39:59.228Z,19.60
2019-05-14T13:42:29.377Z,19.60
2019-05-14T13:44:58.468Z,19.60
2019-05-14T13:47:28.680Z,19.60
2019-05-14T13:49:59.063Z,19.60
2019-05-14T13:52:25.964Z,19.50
2019-05-14T13:54:54.021Z,19.60
2019-05-14T13:57:22.039Z,19.50
2019-05-14T13:59:50.117Z,19.60
2019-05-14T14:02:18.927Z,19.60
2019-05-14T14:04:48.231Z,19.50
2019-05-14T14:07:18.757Z,19.60
2019-05-14T14:09:46.116Z,19.60
2019-05-14T14:12:14.104Z,19.60
2019-05-14T14:14:42.202Z,19.60
2019-05-14T14:17:10.378Z,19.60
2019-05-14T14:19:38.875Z,19.60
2019-05-14T14:22:09.570Z,19.60
2019-05-14T14:24:38.619Z,19.60
2019-05-14T14:27:08.959Z,19.60
2019-05-14T14:29:36.350Z,19.60
2019-05-14T14:32:04.416Z,19.60
2019-05-14T14:34:32.408Z,19.60
2019-05-14T14:37:00.485Z,19.60
2019-05-14T14:39:28.787Z,19.60
2019-05-14T14:41:58.489Z,19.60
2019-05-14T14:44:29.005Z,19.60
2019-05-14T14:46:57.822Z,19.60
2019-05-14T14:49:28.060Z,19.60
2019-05-14T14:51:58.714Z,19.60
2019-05-14T14:54:25.486Z,19.60
2019-05-14T14:56:53.515Z,19.60
2019-05-14T14:59:21.615Z,19.50
2019-05-14T15:01:50.349Z,19.60
2019-05-14T15:04:19.480Z,19.50
2019-05-14T15:06:50.799Z,19.50
2019-05-14T15:09:17.461Z,19.50
2019-05-14T15:11:45.459Z,19.50
2019-05-14T15:14:13.493Z,19.50
2019-05-14T15:16:41.538Z,19.50
2019-05-14T15:19:09.653Z,19.50
2019-05-14T15:21:37.641Z,19.50
2019-05-14T15:24:14.518Z,19.50
2019-05-14T15:26:35.462Z,19.60
2019-05-14T15:29:03.545Z,19.60
2019-05-14T15:31:31.546Z,19.50
2019-05-14T15:33:59.637Z,19.50
2019-05-14T15:36:27.961Z,19.60
2019-05-14T15:38:56.136Z,19.60
2019-05-14T15:41:24.301Z,19.60
2019-05-14T15:43:52.334Z,19.60
2019-05-14T15:46:20.375Z,19.50
2019-05-14T15:48:48.902Z,19.50
2019-05-14T15:51:19.448Z,19.40
2019-05-14T15:54:05.412Z,19.40
2019-05-14T15:56:18.707Z,19.40
2019-05-14T15:58:46.397Z,19.40
2019-05-14T16:01:14.432Z,19.40
2019-05-14T16:03:42.512Z,19.40
2019-05-14T16:06:10.547Z,19.40
2019-05-14T16:08:40.259Z,19.40
2019-05-14T16:11:11.409Z,19.40
2019-05-14T16:13:39.837Z,19.40
2019-05-14T16:16:10.368Z,19.40
2019-05-14T16:18:38.591Z,19.40
2019-05-14T16:21:06.796Z,19.40
2019-05-14T16:23:34.853Z,19.40
2019-05-14T16:26:02.903Z,19.40
2019-05-14T16:28:30.937Z,19.50
2019-05-14T16:30:59.381Z,19.60
2019-05-14T16:33:29.180Z,19.50
2019-05-14T16:35:57.958Z,19.50
2019-05-14T16:38:28.552Z,19.50
2019-05-14T16:40:55.908Z,19.50
2019-05-14T16:43:24.018Z,19.60
2019-05-14T16:45:52.181Z,19.70
2019-05-14T16:48:20.225Z,19.70
2019-05-14T16:50:48.958Z,19.60
2019-05-14T16:53:19.446Z,19.60
2019-05-14T16:55:48.885Z,19.60
2019-05-14T16:58:19.658Z,19.60
2019-05-14T17:00:46.435Z,19.60
2019-05-14T17:03:14.538Z,19.60
2019-05-14T17:05:42.580Z,19.60
2019-05-14T17:08:10.619Z,19.60
2019-05-14T17:10:38.874Z,19.60
2019-05-14T17:13:09.096Z,19.60
2019-05-14T17:15:39.217Z,19.70
2019-05-14T17:18:08.771Z,19.70
2019-05-14T17:20:36.291Z,19.60
2019-05-14T17:23:04.346Z,19.70
2019-05-14T17:25:32.391Z,19.70
2019-05-14T17:28:00.419Z,19.70
2019-05-14T17:30:29.096Z,19.70
2019-05-14T17:32:58.956Z,19.70
2019-05-14T17:35:29.598Z,19.70
2019-05-14T17:37:58.794Z,19.70
2019-05-14T17:40:26.555Z,19.70
2019-05-14T17:42:54.669Z,19.70
2019-05-14T17:45:22.733Z,19.70
2019-05-14T17:47:50.803Z,19.70
2019-05-14T17:50:18.889Z,19.70
2019-05-14T17:52:55.442Z,19.70
2019-05-14T17:55:18.650Z,19.70
2019-05-14T17:57:55.106Z,19.70
2019-05-14T18:00:18.125Z,19.80
2019-05-14T18:02:48.389Z,19.80
2019-05-14T18:05:18.609Z,19.80
2019-05-14T18:07:45.526Z,19.80
2019-05-14T18:10:15.266Z,19.80
2019-05-14T18:12:43.338Z,19.80
2019-05-14T18:15:11.346Z,19.90
2019-05-14T18:17:39.668Z,19.90
2019-05-14T18:20:08.354Z,19.90
2019-05-14T18:22:42.122Z,19.90
2019-05-14T18:25:06.715Z,19.80
2019-05-14T18:27:34.710Z,19.90
2019-05-14T18:30:02.751Z,19.90
2019-05-14T18:32:30.814Z,19.90
2019-05-14T18:34:58.878Z,19.90
2019-05-14T18:37:28.604Z,19.90
2019-05-14T18:39:58.634Z,19.90
2019-05-14T18:42:26.391Z,19.90
2019-05-14T18:44:54.427Z,19.80
2019-05-14T18:47:22.462Z,19.90
2019-05-14T18:49:50.512Z,19.90
2019-05-14T18:52:18.670Z,19.90
2019-05-14T18:54:48.377Z,19.80
2019-05-14T18:57:18.042Z,19.80
2019-05-14T18:59:48.808Z,19.80
2019-05-14T19:02:18.302Z,19.70
2019-05-14T19:04:48.292Z,19.70
2019-05-14T19:07:15.798Z,19.70
2019-05-14T19:09:43.918Z,19.70
2019-05-14T19:12:12.019Z,19.80
2019-05-14T19:14:40.163Z,19.80
2019-05-14T19:17:09.182Z,19.70
2019-05-14T19:19:38.598Z,19.70
2019-05-14T19:22:06.790Z,19.70
2019-05-14T19:24:34.838Z,19.70
2019-05-14T19:27:02.947Z,19.70
2019-05-14T19:29:30.989Z,19.70
2019-05-14T19:31:59.043Z,19.70
2019-05-14T19:34:28.738Z,19.70
2019-05-14T19:36:56.858Z,19.70
2019-05-14T19:39:24.902Z,19.70
2019-05-14T19:41:52.995Z,19.70
2019-05-14T19:44:21.048Z,19.70
2019-05-14T19:46:49.323Z,19.60
2019-05-14T19:49:18.434Z,19.60
2019-05-14T19:51:48.310Z,19.60
2019-05-14T19:54:19.193Z,19.60
2019-05-14T19:56:53.209Z,19.60
2019-05-14T19:59:17.834Z,19.60
2019-05-14T20:01:48.222Z,19.50
2019-05-14T20:04:15.433Z,19.50
2019-05-14T20:06:43.498Z,19.60
2019-05-14T20:09:11.561Z,19.50
2019-05-14T20:11:40.003Z,19.50
2019-05-14T20:14:08.159Z,19.50
2019-05-14T20:16:36.210Z,19.50
2019-05-14T20:19:04.240Z,19.50
2019-05-14T20:21:32.760Z,19.50
2019-05-14T20:24:00.852Z,19.50
2019-05-14T20:26:28.969Z,19.50
2019-05-14T20:28:59.033Z,19.50
2019-05-14T20:31:26.810Z,19.50
2019-05-14T20:33:54.834Z,19.50
2019-05-14T20:36:22.918Z,19.50
2019-05-14T20:38:50.940Z,19.50
2019-05-14T20:41:18.996Z,19.40
2019-05-14T20:43:48.013Z,19.40
2019-05-14T20:46:18.463Z,19.40
2019-05-14T20:48:45.986Z,19.40
2019-05-14T20:51:14.399Z,19.40
2019-05-14T20:53:42.801Z,19.40
2019-05-14T20:56:10.854Z,19.40
2019-05-14T20:58:39.102Z,19.40
2019-05-14T21:01:11.111Z,19.30
2019-05-14T21:03:36.968Z,19.30
2019-05-14T21:06:04.999Z,19.30
2019-05-14T21:08:33.051Z,19.30
2019-05-14T21:11:01.092Z,19.30
2019-05-14T21:13:29.228Z,19.20
2019-05-14T21:15:57.268Z,19.20
2019-05-14T21:18:34.796Z,19.20
2019-05-14T21:20:55.160Z,19.20
2019-05-14T21:23:23.198Z,19.20
2019-05-14T21:25:51.232Z,19.20
2019-05-14T21:28:19.299Z,19.20
2019-05-14T21:30:48.529Z,19.10
2019-05-14T21:33:16.905Z,19.10
2019-05-14T21:35:45.171Z,19.10
2019-05-14T21:38:13.279Z,19.10
2019-05-14T21:40:41.397Z,19.10
2019-05-14T21:43:11.321Z,19.10
2019-05-14T21:45:39.326Z,19.00
2019-05-14T21:48:08.647Z,19.10
2019-05-14T21:50:38.705Z,19.00
2019-05-14T21:53:08.405Z,19.00
2019-05-14T21:55:38.580Z,19.00
2019-05-14T21:58:11.543Z,19.00
2019-05-14T22:00:42.135Z,19.00
2019-05-14T22:03:10.356Z,19.00
2019-05-14T22:05:39.324Z,19.00
2019-05-14T22:08:08.811Z,19.10
2019-05-14T22:10:39.765Z,19.10
2019-05-14T22:13:06.998Z,19.20
2019-05-14T22:15:35.324Z,19.30
2019-05-14T22:18:03.825Z,19.30
2019-05-14T22:20:31.960Z,19.30
2019-05-14T22:23:00.003Z,19.30
2019-05-14T22:25:28.556Z,19.30
2019-05-14T22:28:10.556Z,19.30
2019-05-14T22:30:28.822Z,19.30
2019-05-14T22:33:00.424Z,19.40
2019-05-14T22:35:28.259Z,19.40
2019-05-14T22:37:56.057Z,19.40
2019-05-14T22:40:24.109Z,19.30
2019-05-14T22:42:52.149Z,19.30
2019-05-14T22:45:20.301Z,19.30
2019-05-14T22:47:48.956Z,19.30
2019-05-14T22:50:18.382Z,19.30
2019-05-14T22:52:48.561Z,19.30
2019-05-14T22:55:16.507Z,19.30
2019-05-14T22:57:44.716Z,19.30
2019-05-14T23:00:12.866Z,19.30
2019-05-14T23:02:40.953Z,19.30
2019-05-14T23:05:09.008Z,19.30
2019-05-14T23:07:38.324Z,19.30
2019-05-14T23:10:08.755Z,19.30
2019-05-14T23:12:38.545Z,19.30
2019-05-14T23:15:06.324Z,19.30
2019-05-14T23:17:34.679Z,19.30
2019-05-14T23:20:02.825Z,19.30
2019-05-14T23:22:30.941Z,19.20
2019-05-14T23:24:59.268Z,19.30
2019-05-14T23:27:29.381Z,19.30
2019-05-14T23:29:58.719Z,19.30
2019-05-14T23:32:28.556Z,19.20
2019-05-14T23:34:58.461Z,19.20
2019-05-14T23:37:28.939Z,19.20
2019-05-14T23:39:58.582Z,19.20
2019-05-14T23:42:27.978Z,19.20
2019-05-14T23:44:58.390Z,19.20
2019-05-14T23:47:25.911Z,19.20
2019-05-14T23:49:53.996Z,19.20
2019-05-14T23:52:40.849Z,19.20
2019-05-14T23:55:08.973Z,19.20
2019-05-14T23:57:37.051Z,19.20
